Time;durP1;ratioP1;P1;durP2;ratioP2;P2;SDS_P1;SDS_P2;PMS_P1;PMS_P2;Temp;Humidity;BMP_temperature;BMP_pressure;BME280_temperature;BME280_humidity;BME280_pressure;Samples;Min_cycle;Max_cycle;Signal;HPM_P1;HPM_P2
2021/10/09 00:01:35;;;;;;;43.80;17.80;;;;;;;4.20;100.00;96326.25;5068800;28;20047;-77
2021/10/09 00:04:01;;;;;;;40.40;16.38;;;;;;;4.24;100.00;96322.22;5061097;28;20127;-76
2021/10/09 00:06:26;;;;;;;37.00;16.15;;;;;;;4.25;100.00;96316.00;5047558;28;20598;-76
2021/10/09 00:08:52;;;;;;;43.92;17.98;;;;;;;4.27;100.00;96319.19;5049565;28;20033;-76
2021/10/09 00:11:20;;;;;;;38.58;18.23;;;;;;;4.28;100.00;96315.59;5068353;28;20041;-76
2021/10/09 00:13:46;;;;;;;39.53;16.33;;;;;;;4.27;100.00;96313.19;5068635;28;20133;-76
2021/10/09 00:16:14;;;;;;;44.67;17.85;;;;;;;4.18;100.00;96312.63;5067735;28;20045;-76
2021/10/09 00:18:39;;;;;;;36.63;17.23;;;;;;;4.17;100.00;96308.44;5050937;28;20052;-76
2021/10/09 00:21:05;;;;;;;41.33;17.23;;;;;;;4.32;100.00;96321.97;5050314;28;20045;-76
2021/10/09 00:23:30;;;;;;;36.60;15.80;;;;;;;4.22;100.00;96311.19;5068853;28;20045;-76
2021/10/09 00:25:57;;;;;;;41.60;16.80;;;;;;;4.21;100.00;96309.59;5066308;28;20119;-76
2021/10/09 00:28:23;;;;;;;37.00;16.75;;;;;;;4.15;100.00;96305.22;5056351;28;20136;-76
2021/10/09 00:30:48;;;;;;;41.17;16.90;;;;;;;4.15;100.00;96306.03;5058945;28;20037;-76
2021/10/09 00:33:14;;;;;;;35.15;16.27;;;;;;;4.09;100.00;96306.06;5066633;28;20079;-76
2021/10/09 00:35:39;;;;;;;41.03;18.02;;;;;;;4.02;100.00;96300.09;5062180;28;20043;-76
2021/10/09 00:38:05;;;;;;;35.47;16.50;;;;;;;4.02;100.00;96300.09;5054134;28;20065;-76
2021/10/09 00:40:31;;;;;;;41.08;16.88;;;;;;;4.01;100.00;96303.69;5048330;28;20051;-76
2021/10/09 00:42:56;;;;;;;41.03;17.85;;;;;;;4.11;100.00;96304.06;5055668;28;20776;-76
2021/10/09 00:45:22;;;;;;;44.10;18.20;;;;;;;4.12;100.00;96297.81;5050181;28;20464;-76
2021/10/09 00:47:50;;;;;;;44.08;18.95;;;;;;;4.12;100.00;96305.63;5062481;28;20493;-77
2021/10/09 00:50:16;;;;;;;42.85;18.00;;;;;;;4.18;100.00;96311.81;5064937;28;20176;-76
2021/10/09 00:52:43;;;;;;;56.75;19.33;;;;;;;4.19;100.00;96298.59;5067951;28;20048;-76
2021/10/09 00:55:10;;;;;;;44.53;19.08;;;;;;;4.20;100.00;96300.19;5056858;28;20048;-76
2021/10/09 00:57:39;;;;;;;46.17;18.65;;;;;;;4.28;100.00;96307.75;5055421;28;20120;-76
2021/10/09 01:00:06;;;;;;;43.92;17.15;;;;;;;4.35;100.00;96305.09;5059798;28;20048;-77
2021/10/09 01:02:37;;;;;;;52.30;19.88;;;;;;;4.45;100.00;96308.06;5068194;28;20044;-76
2021/10/09 01:05:07;;;;;;;59.60;21.52;;;;;;;4.52;100.00;96305.41;5055912;28;20051;-76
2021/10/09 01:07:33;;;;;;;50.63;19.90;;;;;;;4.51;100.00;96298.59;5057395;28;20041;-76
2021/10/09 01:10:00;;;;;;;47.58;19.95;;;;;;;4.51;100.00;96303.78;5056052;28;20044;-76
2021/10/09 01:12:27;;;;;;;50.40;21.08;;;;;;;4.54;100.00;96300.78;5065418;28;20072;-76
2021/10/09 01:14:53;;;;;;;50.00;19.98;;;;;;;4.57;100.00;96296.94;5064461;28;20032;-76
2021/10/09 01:17:18;;;;;;;49.10;21.38;;;;;;;4.58;100.00;96304.53;5063958;28;20045;-76
2021/10/09 01:19:44;;;;;;;44.70;19.67;;;;;;;4.58;100.00;96303.75;5048917;28;20127;-77
2021/10/09 01:22:10;;;;;;;58.03;22.20;;;;;;;4.61;100.00;96309.38;5060405;28;20048;-76
2021/10/09 01:24:36;;;;;;;55.45;21.50;;;;;;;4.63;100.00;96304.72;5045846;28;20052;-76
2021/10/09 01:27:02;;;;;;;51.88;20.90;;;;;;;4.63;100.00;96302.13;5067327;28;20044;-76
2021/10/09 01:29:28;;;;;;;55.42;22.42;;;;;;;4.63;100.00;96302.13;5066916;28;20040;-76
2021/10/09 01:31:54;;;;;;;43.45;20.27;;;;;;;4.60;100.00;96302.53;5049332;28;20553;-76
2021/10/09 01:34:21;;;;;;;50.72;21.42;;;;;;;4.62;100.00;96303.13;5060165;28;20045;-76
2021/10/09 01:36:47;;;;;;;48.88;20.30;;;;;;;4.59;100.00;96300.94;5030408;28;20049;-76
2021/10/09 01:39:15;;;;;;;44.72;20.65;;;;;;;4.60;100.00;96292.13;5063271;28;20406;-76
2021/10/09 01:41:43;;;;;;;51.97;20.73;;;;;;;4.60;100.00;96291.34;5049103;28;20041;-76
2021/10/09 01:44:09;;;;;;;47.30;19.65;;;;;;;4.62;100.00;96292.69;5067920;28;20051;-76
2021/10/09 01:46:35;;;;;;;54.00;21.58;;;;;;;4.61;100.00;96304.16;5057282;28;20502;-76
2021/10/09 01:49:01;;;;;;;40.10;18.27;;;;;;;4.59;100.00;96295.72;5049090;28;20170;-77
2021/10/09 01:51:29;;;;;;;44.30;19.25;;;;;;;4.50;100.00;96286.56;5067161;28;20072;-76
2021/10/09 01:53:55;;;;;;;39.13;18.33;;;;;;;4.52;100.00;96294.97;5066488;28;20048;-76
2021/10/09 01:56:20;;;;;;;48.83;19.65;;;;;;;4.51;100.00;96298.59;5067729;28;20044;-76
2021/10/09 01:58:46;;;;;;;48.13;20.05;;;;;;;4.51;100.00;96288.16;5049205;28;20044;-76
2021/10/09 02:01:11;;;;;;;49.88;20.45;;;;;;;4.56;100.00;96285.72;5066636;28;20036;-76
2021/10/09 02:03:37;;;;;;;48.78;19.95;;;;;;;4.55;100.00;96286.72;5065402;28;20071;-76
2021/10/09 02:06:04;;;;;;;48.08;21.65;;;;;;;4.53;100.00;96286.16;5067725;28;20047;-76
2021/10/09 02:08:29;;;;;;;46.10;18.95;;;;;;;4.53;100.00;96286.16;5066474;28;20044;-76
2021/10/09 02:11:01;;;;;;;48.72;20.95;;;;;;;4.50;100.00;96279.53;5067154;28;20108;-76
2021/10/09 02:13:43;;;;;;;44.50;19.08;;;;;;;4.50;100.00;96283.97;5066943;28;20036;-76
2021/10/09 02:16:21;;;;;;;45.78;19.42;;;;;;;4.54;100.00;96277.34;5047061;28;20052;-76
2021/10/09 02:26:49;;;;;;;44.78;19.73;;;;;;;4.68;100.00;96289.25;5067478;28;20036;-76
2021/10/09 02:29:15;;;;;;;42.63;19.08;;;;;;;4.69;100.00;96285.63;5052389;28;20044;-76
2021/10/09 02:31:40;;;;;;;53.55;21.40;;;;;;;4.80;100.00;96280.75;5070011;28;20099;-76
2021/10/09 02:34:06;;;;;;;53.20;20.73;;;;;;;4.89;100.00;96289.09;5053180;28;20037;-76
2021/10/09 02:36:32;;;;;;;47.38;20.48;;;;;;;4.84;100.00;96281.91;5068671;28;20559;-77
2021/10/09 02:38:57;;;;;;;49.55;20.98;;;;;;;4.89;100.00;96279.44;5051200;28;20047;-76
2021/10/09 02:41:23;;;;;;;54.17;20.63;;;;;;;4.94;100.00;96292.66;5056240;28;20039;-76
2021/10/09 02:43:48;;;;;;;45.05;21.15;;;;;;;4.94;100.00;96282.22;5052073;28;20048;-76
2021/10/09 02:46:14;;;;;;;52.40;19.92;;;;;;;4.94;100.00;96287.44;5067934;28;20037;-76
2021/10/09 02:48:40;;;;;;;43.20;19.23;;;;;;;4.87;100.00;96291.94;5077792;28;20707;-76
2021/10/09 02:51:06;;;;;;;38.53;18.10;;;;;;;4.85;100.00;96293.94;5074443;28;20048;-76
2021/10/09 02:53:33;;;;;;;40.45;18.70;;;;;;;4.87;100.00;96291.94;5071084;28;20044;-76
2021/10/09 02:55:58;;;;;;;45.88;17.40;;;;;;;4.75;100.00;96288.41;5063595;28;20071;-76
2021/10/09 02:58:24;;;;;;;36.72;16.58;;;;;;;4.74;100.00;96286.78;5070310;28;20044;-76
2021/10/09 03:00:50;;;;;;;38.00;17.60;;;;;;;4.63;100.00;96291.69;5051750;28;20075;-76
2021/10/09 03:03:15;;;;;;;42.85;18.15;;;;;;;4.58;100.00;96295.94;5059734;28;20450;-77
2021/10/09 03:05:41;;;;;;;37.10;16.88;;;;;;;4.55;100.00;96294.53;5056879;28;20033;-76
2021/10/09 03:08:07;;;;;;;36.45;17.10;;;;;;;4.48;100.00;96278.16;5061505;28;20036;-76
2021/10/09 03:10:32;;;;;;;36.05;17.17;;;;;;;4.47;100.00;96276.56;5069859;28;20059;-76
2021/10/09 03:12:59;;;;;;;40.80;15.93;;;;;;;4.43;100.00;96280.63;5070558;28;20048;-76
2021/10/09 03:15:24;;;;;;;35.75;16.95;;;;;;;4.39;100.00;96282.03;5068343;28;20059;-76
2021/10/09 03:17:50;;;;;;;34.45;15.88;;;;;;;4.33;100.00;96287.06;5079860;28;20040;-76
2021/10/09 03:20:15;;;;;;;34.55;15.10;;;;;;;4.22;100.00;96277.31;5063652;28;20040;-77
2021/10/09 03:22:41;;;;;;;35.78;15.20;;;;;;;4.21;100.00;96283.56;5069894;28;20530;-76
2021/10/09 03:25:07;;;;;;;32.47;15.10;;;;;;;4.13;100.00;96286.41;5066448;28;20044;-77
2021/10/09 03:27:33;;;;;;;32.42;15.63;;;;;;;4.06;100.00;96280.44;5051624;28;20040;-76
2021/10/09 03:29:59;;;;;;;34.50;15.95;;;;;;;3.97;100.00;96272.84;5069426;28;20048;-76
2021/10/09 03:32:25;;;;;;;36.10;16.08;;;;;;;3.86;100.00;96281.31;5063630;28;20500;-76
2021/10/09 03:34:51;;;;;;;35.42;16.63;;;;;;;3.80;100.00;96287.34;5051294;28;20127;-76
2021/10/09 03:37:16;;;;;;;31.83;14.95;;;;;;;3.78;100.00;96291.97;5043530;28;20567;-76
2021/10/09 03:39:45;;;;;;;33.78;15.55;;;;;;;3.80;100.00;96287.34;5048411;28;20041;-77
2021/10/09 03:42:36;;;;;;;31.63;16.08;;;;;;;3.77;100.00;96287.78;5060828;28;20036;-76
2021/10/09 03:45:07;;;;;;;40.28;16.48;;;;;;;3.78;100.00;96294.59;5077138;28;20056;-77
2021/10/09 03:52:46;;;;;;;35.40;15.38;;;;;;;3.53;100.00;96292.66;5065983;28;20041;-77
2021/10/09 03:55:14;;;;;;;35.92;16.42;;;;;;;3.48;100.00;96305.50;5068799;28;20079;-76
2021/10/09 03:57:41;;;;;;;38.13;15.60;;;;;;;3.46;100.00;96297.06;5068447;28;20045;-76
2021/10/09 04:00:09;;;;;;;35.17;16.38;;;;;;;3.49;100.00;96295.88;5050868;28;20037;-77
2021/10/09 04:02:35;;;;;;;35.83;16.05;;;;;;;3.45;100.00;96295.50;5067714;28;20040;-77
2021/10/09 04:05:01;;;;;;;36.22;15.57;;;;;;;3.47;100.00;96299.47;5069024;28;20417;-76
2021/10/09 04:07:27;;;;;;;35.17;15.82;;;;;;;3.43;100.00;96292.28;5059274;28;20072;-76
2021/10/09 04:09:53;;;;;;;37.50;16.05;;;;;;;3.36;100.00;96301.91;5067614;28;20036;-76
2021/10/09 04:12:18;;;;;;;38.97;16.98;;;;;;;3.22;100.00;96291.53;5069106;28;20036;-77
2021/10/09 04:14:44;;;;;;;41.17;16.65;;;;;;;3.21;100.00;96305.53;5067976;28;20041;-76
2021/10/09 04:17:09;;;;;;;34.05;15.15;;;;;;;3.21;100.00;96294.34;5057685;28;20071;-76
2021/10/09 04:19:36;;;;;;;33.08;16.05;;;;;;;3.15;100.00;96306.34;5049683;28;20136;-76
2021/10/09 04:22:02;;;;;;;37.50;15.45;;;;;;;3.12;100.00;96297.16;5069011;28;20043;-76
2021/10/09 04:24:27;;;;;;;39.33;16.52;;;;;;;3.09;100.00;96297.56;5049866;28;20048;-76
2021/10/09 04:26:53;;;;;;;36.28;16.10;;;;;;;3.20;100.00;96297.94;5062779;28;20075;-76
2021/10/09 04:29:18;;;;;;;37.55;16.80;;;;;;;3.20;100.00;96293.53;5050261;28;22368;-77
2021/10/09 04:31:45;;;;;;;43.50;17.27;;;;;;;3.27;100.00;96291.72;5067799;28;20036;-76
2021/10/09 04:34:10;;;;;;;42.17;16.50;;;;;;;3.34;100.00;96298.72;5067434;28;20102;-76
2021/10/09 04:36:36;;;;;;;45.80;18.63;;;;;;;3.36;100.00;96296.72;5065286;28;20494;-76
2021/10/09 04:39:03;;;;;;;44.40;18.20;;;;;;;3.41;100.00;96299.50;5050357;28;20041;-76
2021/10/09 04:41:28;;;;;;;44.85;19.30;;;;;;;3.45;100.00;96295.50;5067638;28;20043;-76
2021/10/09 04:43:55;;;;;;;44.00;19.10;;;;;;;3.55;100.00;96295.88;5049867;28;20119;-76
2021/10/09 04:46:20;;;;;;;63.08;24.23;;;;;;;3.61;100.00;96284.63;5062910;28;20094;-76
2021/10/09 04:48:46;;;;;;;50.15;20.92;;;;;;;3.81;100.00;96294.16;5048659;28;20445;-76
2021/10/09 04:51:12;;;;;;;44.83;20.23;;;;;;;3.94;100.00;96299.31;5058317;28;20111;-77
2021/10/09 04:53:37;;;;;;;57.85;23.55;;;;;;;3.97;100.00;96293.69;5068368;28;20045;-76
2021/10/09 04:56:03;;;;;;;58.78;24.35;;;;;;;4.09;100.00;96300.84;5061344;28;20053;-76
2021/10/09 04:58:28;;;;;;;60.25;22.75;;;;;;;4.18;100.00;96302.22;5063111;28;20410;-76
2021/10/09 05:00:54;;;;;;;57.65;23.48;;;;;;;4.24;100.00;96303.97;5067680;28;20044;-76
2021/10/09 05:03:19;;;;;;;58.58;23.70;;;;;;;4.33;100.00;96302.72;5068435;28;20486;-76
2021/10/09 05:05:45;;;;;;;50.90;22.83;;;;;;;4.37;100.00;96307.50;5062036;28;20106;-76
2021/10/09 05:08:11;;;;;;;56.20;24.20;;;;;;;4.53;100.00;96312.22;5048202;28;20065;-76
2021/10/09 05:10:38;;;;;;;62.33;25.80;;;;;;;4.68;100.00;96299.69;5058319;28;20461;-76
2021/10/09 05:13:04;;;;;;;63.45;24.67;;;;;;;4.74;100.00;96312.88;5050106;28;20506;-76
2021/10/09 05:15:30;;;;;;;69.95;25.73;;;;;;;4.74;100.00;96312.88;5066326;28;20041;-76
2021/10/09 05:17:56;;;;;;;72.22;27.92;;;;;;;4.90;100.00;96317.56;5049146;28;20066;-76
2021/10/09 05:20:21;;;;;;;66.88;26.52;;;;;;;4.89;100.00;96315.19;5066039;28;20040;-76
2021/10/09 05:22:47;;;;;;;75.43;29.88;;;;;;;4.91;100.00;96313.94;5066174;28;20047;-76
2021/10/09 05:25:13;;;;;;;81.60;31.38;;;;;;;4.96;100.00;96311.50;5057372;28;20048;-76
2021/10/09 05:27:43;;;;;;;66.10;27.50;;;;;;;5.03;100.00;96321.88;5068216;28;20056;-76
2021/10/09 05:30:11;;;;;;;75.85;28.63;;;;;;;5.07;100.00;96317.03;5067680;28;20041;-76
2021/10/09 05:32:47;;;;;;;74.15;30.13;;;;;;;5.12;100.00;96322.41;5064359;28;20048;-76
2021/10/09 05:35:13;;;;;;;76.45;29.90;;;;;;;5.16;100.00;96320.97;5062625;28;20063;-76
2021/10/09 05:37:39;;;;;;;72.40;29.13;;;;;;;5.24;100.00;96323.28;5066529;28;20421;-77
2021/10/09 05:40:05;;;;;;;79.22;29.90;;;;;;;5.35;100.00;96319.97;5049162;28;20051;-76
2021/10/09 05:42:31;;;;;;;81.05;29.88;;;;;;;5.38;100.00;96319.53;5067341;28;20041;-76
2021/10/09 05:44:57;;;;;;;81.63;30.13;;;;;;;5.33;100.00;96322.00;5049540;28;20490;-76
2021/10/09 05:47:23;;;;;;;74.97;30.23;;;;;;;5.32;100.00;96324.84;5052380;28;20040;-77
2021/10/09 05:49:53;;;;;;;70.22;29.77;;;;;;;5.49;100.00;96325.09;5064074;28;20047;-76
2021/10/09 05:52:26;;;;;;;75.00;31.40;;;;;;;5.42;100.00;96329.56;5088376;28;20040;-77
2021/10/09 05:55:06;;;;;;;76.97;30.80;;;;;;;5.36;100.00;96326.00;5088125;28;20044;-77
2021/10/09 05:57:36;;;;;;;78.82;31.10;;;;;;;5.42;100.00;96326.97;5047523;28;20441;-76
2021/10/09 06:46:55;;;;;;;80.47;28.98;;;;;;;5.59;100.00;96356.69;5058914;28;20036;-76
2021/10/09 07:00:17;;;;;;;83.72;28.88;;;;;;;5.71;100.00;96365.41;5050738;28;20820;-76
2021/10/09 07:02:43;;;;;;;87.82;31.30;;;;;;;5.67;100.00;96361.63;5045698;28;20041;-76
2021/10/09 07:05:13;;;;;;;80.13;30.83;;;;;;;5.71;100.00;96354.97;5051284;28;20044;-76
2021/10/09 07:07:44;;;;;;;83.07;29.65;;;;;;;5.80;100.00;96367.72;5059004;28;20041;-76
2021/10/09 07:10:12;;;;;;;83.30;31.25;;;;;;;5.84;100.00;96368.91;5057865;28;20044;-76
2021/10/09 07:12:38;;;;;;;74.65;30.30;;;;;;;5.78;100.00;96369.78;5048935;28;20048;-77
2021/10/09 07:15:09;;;;;;;77.35;30.75;;;;;;;5.80;100.00;96372.97;5066110;28;20044;-76
2021/10/09 07:17:35;;;;;;;83.65;30.05;;;;;;;5.87;100.00;96378.91;5070069;28;20052;-76
2021/10/09 07:20:03;;;;;;;70.32;28.35;;;;;;;5.98;100.00;96383.44;5069910;28;20044;-76
2021/10/09 07:22:29;;;;;;;76.03;29.63;;;;;;;6.10;100.00;96378.28;5070060;28;20127;-77
2021/10/09 07:24:55;;;;;;;84.35;30.70;;;;;;;6.00;100.00;96378.78;5050826;28;20123;-76
2021/10/09 07:27:20;;;;;;;94.97;30.08;;;;;;;5.91;100.00;96374.84;5050410;28;20052;-77
2021/10/09 07:29:46;;;;;;;80.10;30.73;;;;;;;5.94;100.00;96379.63;5069937;28;20047;-76
2021/10/09 07:32:11;;;;;;;73.65;30.00;;;;;;;5.95;100.00;96386.47;5041498;28;20045;-76
2021/10/09 07:34:38;;;;;;;77.30;31.13;;;;;;;5.94;100.00;96391.91;5067799;28;20134;-76
2021/10/09 07:37:04;;;;;;;77.93;29.73;;;;;;;6.00;100.00;96381.41;5067549;28;20516;-76
2021/10/09 07:39:31;;;;;;;86.18;30.42;;;;;;;6.02;100.00;96386.41;5051663;28;20123;-75
2021/10/09 07:41:58;;;;;;;81.47;31.30;;;;;;;5.90;100.00;96384.50;5069249;28;20757;-76
2021/10/09 07:44:24;;;;;;;82.28;30.38;;;;;;;6.13;100.00;96398.75;5070226;28;20669;-76
2021/10/09 07:46:50;;;;;;;75.28;29.58;;;;;;;6.36;100.00;96402.50;5044203;28;20048;-76
2021/10/09 07:49:16;;;;;;;90.15;28.67;;;;;;;6.36;100.00;96398.06;5069348;28;20050;-76
2021/10/09 07:51:43;;;;;;;72.15;29.08;;;;;;;6.28;100.00;96395.78;5069761;28;20067;-77
2021/10/09 07:54:08;;;;;;;79.10;31.77;;;;;;;6.15;100.00;96401.13;5067981;28;20086;-77
2021/10/09 07:56:34;;;;;;;83.65;31.95;;;;;;;6.17;100.00;96404.34;5046429;28;20067;-76
2021/10/09 07:58:59;;;;;;;83.63;29.95;;;;;;;6.24;100.00;96397.22;5067543;28;20123;-75
2021/10/09 08:01:25;;;;;;;76.38;31.08;;;;;;;6.43;100.00;96402.44;5069208;28;20518;-76
2021/10/09 08:03:51;;;;;;;74.20;29.02;;;;;;;6.52;100.00;96406.31;5049793;28;20044;-77
2021/10/09 08:06:17;;;;;;;80.68;31.20;;;;;;;6.52;100.00;96401.09;5067245;28;20901;-77
2021/10/09 08:08:43;;;;;;;74.05;28.85;;;;;;;6.52;100.00;96406.31;5044754;28;20044;-78
2021/10/09 08:11:09;;;;;;;74.65;29.17;;;;;;;6.55;100.00;96401.47;5069096;28;20572;-76
2021/10/09 08:13:36;;;;;;;77.72;29.50;;;;;;;6.63;100.00;96405.56;5067885;28;20115;-77
2021/10/09 08:16:03;;;;;;;75.68;28.50;;;;;;;6.61;100.00;96404.19;5052357;28;20040;-76
2021/10/09 08:18:28;;;;;;;72.93;29.20;;;;;;;6.57;100.00;96409.88;5051758;28;20861;-78
2021/10/09 08:21:00;;;;;;;78.22;30.00;;;;;;;6.60;100.00;96413.88;5067773;28;20040;-77
2021/10/09 08:23:29;;;;;;;74.70;29.65;;;;;;;6.54;100.00;96414.75;5056812;28;20453;-76
2021/10/09 08:37:17;;;;;;;76.97;29.98;;;;;;;6.48;100.00;96415.63;5056500;28;20216;-77
2021/10/09 08:39:43;;;;;;;76.80;29.23;;;;;;;6.45;100.00;96416.06;5049103;28;20052;-78
2021/10/09 08:42:09;;;;;;;84.18;29.55;;;;;;;6.48;100.00;96420.84;5049521;28;20041;-77
2021/10/09 08:44:36;;;;;;;72.78;28.88;;;;;;;6.60;100.00;96429.56;5049563;28;20068;-76
2021/10/09 08:47:02;;;;;;;67.35;28.10;;;;;;;6.79;100.00;96427.69;5065928;28;20044;-77
2021/10/09 08:49:27;;;;;;;68.90;27.73;;;;;;;6.86;100.00;96422.38;5062762;28;20052;-78
2021/10/09 08:51:53;;;;;;;64.45;26.10;;;;;;;7.02;98.47;96424.34;5077929;28;20041;-77
2021/10/09 08:54:19;;;;;;;79.35;29.15;;;;;;;6.81;98.39;96419.63;5030924;28;20041;-77
2021/10/09 08:56:48;;;;;;;70.93;28.30;;;;;;;6.75;99.39;96426.53;5052130;28;20048;-77
2021/10/09 08:59:26;;;;;;;72.38;28.70;;;;;;;6.54;98.58;96425.22;5051118;28;20391;-77
2021/10/09 09:02:25;;;;;;;63.13;26.50;;;;;;;6.62;99.01;96432.75;5063805;28;20032;-81
2021/10/09 09:40:06;;;;;;;55.65;22.85;;;;;;;7.72;92.42;96435.16;5070331;28;20041;-77
2021/10/09 09:42:31;;;;;;;56.53;23.40;;;;;;;7.23;93.21;96435.34;5072136;28;20075;-77
2021/10/09 09:45:00;;;;;;;55.00;22.70;;;;;;;7.16;92.66;96432.03;5074364;28;20056;-76
2021/10/09 09:47:34;;;;;;;55.47;21.73;;;;;;;7.42;93.45;96436.84;5068138;28;20083;-76
2021/10/09 09:50:02;;;;;;;53.03;21.42;;;;;;;7.17;92.75;96441.44;5070956;28;20040;-76
2021/10/09 09:52:29;;;;;;;51.67;20.92;;;;;;;7.29;92.33;96431.81;5053865;28;20097;-76
2021/10/09 09:54:55;;;;;;;49.38;21.80;;;;;;;7.33;92.11;96437.41;5068144;28;20041;-77
2021/10/09 09:57:20;;;;;;;52.65;22.08;;;;;;;7.27;91.71;96433.88;5071534;28;20044;-76
2021/10/09 09:59:50;;;;;;;48.95;20.90;;;;;;;7.39;91.50;96431.25;5072228;28;20051;-77
2021/10/09 10:02:18;;;;;;;48.47;20.67;;;;;;;7.45;90.90;96433.75;5053856;28;20530;-76
2021/10/09 10:04:44;;;;;;;43.78;19.52;;;;;;;7.44;91.48;96434.81;5064314;28;20036;-77
2021/10/09 10:07:10;;;;;;;49.90;21.05;;;;;;;7.32;91.82;96431.34;5050051;28;20044;-76
2021/10/09 10:09:36;;;;;;;53.10;22.05;;;;;;;7.50;91.25;96432.28;5071391;28;20044;-77
2021/10/09 10:12:06;;;;;;;52.70;21.33;;;;;;;7.36;91.08;96429.88;5071729;28;20082;-77
2021/10/09 10:14:32;;;;;;;61.65;21.13;;;;;;;7.72;92.05;96435.94;5071480;28;20131;-76
2021/10/09 10:16:59;;;;;;;50.60;21.02;;;;;;;7.55;91.27;96435.03;5070923;28;20058;-76
2021/10/09 10:19:50;;;;;;;45.38;19.52;;;;;;;7.98;90.23;96426.03;5052613;28;20536;-77
2021/10/09 10:22:42;;;;;;;49.80;21.35;;;;;;;7.86;90.23;96425.22;5071755;28;20052;-76
2021/10/09 10:25:33;;;;;;;48.20;20.70;;;;;;;7.79;89.81;96431.38;5057971;28;20053;-77
2021/10/09 10:28:05;;;;;;;52.00;21.70;;;;;;;7.95;89.07;96423.88;5062916;28;20048;-76
2021/10/09 10:30:35;;;;;;;51.58;20.55;;;;;;;8.51;89.71;96420.81;5061314;28;20525;-75
2021/10/09 10:33:02;;;;;;;46.42;20.80;;;;;;;8.86;87.79;96409.38;5069890;28;20060;-76
2021/10/09 10:35:30;;;;;;;44.20;19.50;;;;;;;9.00;86.46;96408.03;5062343;28;20083;-76
2021/10/09 10:38:06;;;;;;;48.10;20.75;;;;;;;9.39;83.62;96410.78;5064717;28;20043;-75
2021/10/09 10:40:45;;;;;;;48.25;20.83;;;;;;;10.75;79.68;96405.16;5070651;28;20044;-75
2021/10/09 10:43:34;;;;;;;45.10;18.73;;;;;;;11.22;75.61;96409.81;5070596;28;20041;-75
2021/10/09 10:46:04;;;;;;;37.97;18.52;;;;;;;10.91;78.30;96414.81;5052906;28;20049;-75
2021/10/09 10:48:48;;;;;;;45.72;18.35;;;;;;;11.44;76.07;96406.31;5072001;28;20568;-76
2021/10/09 10:52:09;;;;;;;41.70;19.05;;;;;;;11.14;76.27;96407.63;5053715;28;20048;-76
2021/10/09 10:54:38;;;;;;;41.95;19.00;;;;;;;10.13;78.79;96409.72;5037274;28;20475;-76
2021/10/09 10:57:06;;;;;;;33.85;16.83;;;;;;;10.54;76.48;96410.22;5071162;28;20047;-77
2021/10/09 10:59:32;;;;;;;38.45;17.92;;;;;;;10.65;78.17;96418.25;5051016;28;20044;-77
2021/10/09 11:02:06;;;;;;;38.60;18.42;;;;;;;10.79;76.96;96411.53;5073299;28;20109;-77
2021/10/09 11:04:44;;;;;;;41.38;19.00;;;;;;;11.42;76.93;96413.66;5068211;28;20045;-77
2021/10/09 11:07:10;;;;;;;38.90;18.77;;;;;;;11.15;73.65;96408.41;5066757;28;20120;-77
2021/10/09 11:09:38;;;;;;;39.45;18.27;;;;;;;11.30;76.39;96410.41;5067049;28;20040;-77
2021/10/09 11:12:23;;;;;;;39.60;19.55;;;;;;;10.87;74.70;96408.44;5071127;28;20120;-77
2021/10/09 11:14:49;;;;;;;36.47;16.88;;;;;;;10.84;74.54;96408.94;5070170;28;20044;-81
2021/10/09 11:17:15;;;;;;;40.35;18.25;;;;;;;12.14;69.63;96400.94;5067812;28;20044;-78
2021/10/09 11:19:49;;;;;;;39.78;17.52;;;;;;;13.23;67.07;96402.81;5069300;28;20094;-78
2021/10/09 11:22:18;;;;;;;38.38;16.73;;;;;;;14.10;64.28;96399.25;5051171;28;20060;-77
2021/10/09 11:24:50;;;;;;;31.23;16.10;;;;;;;14.42;63.94;96397.28;5066680;28;20041;-77
2021/10/09 11:27:18;;;;;;;34.00;16.67;;;;;;;14.48;61.52;96393.53;5071953;28;20041;-77
2021/10/09 11:30:10;;;;;;;37.17;17.77;;;;;;;13.92;62.82;96398.00;5071763;28;20118;-77
2021/10/09 11:32:38;;;;;;;39.42;17.20;;;;;;;13.67;63.06;96396.19;5072470;28;20059;-77
2021/10/09 11:35:05;;;;;;;34.92;16.85;;;;;;;14.11;61.94;96389.47;5071209;28;20086;-77
2021/10/09 11:37:33;;;;;;;39.83;17.80;;;;;;;14.81;61.65;96386.78;5055357;28;20556;-78
2021/10/09 11:40:03;;;;;;;31.90;16.58;;;;;;;15.47;60.93;96382.03;5053480;28;20051;-78
2021/10/09 11:42:38;;;;;;;30.10;14.18;;;;;;;16.37;54.84;96381.66;5052305;28;20056;-79
2021/10/09 11:45:27;;;;;;;29.33;14.77;;;;;;;15.50;56.22;96375.38;5059585;28;20053;-78
2021/10/09 11:53:41;;;;;;;34.05;16.00;;;;;;;15.39;56.85;96374.69;5070342;28;20036;-78
2021/10/09 11:56:12;;;;;;;33.33;16.08;;;;;;;14.95;56.21;96376.34;5071184;28;20052;-77
2021/10/09 11:58:47;;;;;;;33.92;16.42;;;;;;;14.99;56.57;96372.09;5072603;28;20429;-78
2021/10/09 12:01:38;;;;;;;28.92;15.50;;;;;;;16.07;55.60;96379.06;5062964;28;20434;-77
2021/10/09 12:04:16;;;;;;;29.02;14.32;;;;;;;17.40;51.27;96370.38;5066773;28;20049;-78
2021/10/09 12:06:55;;;;;;;27.40;14.18;;;;;;;16.79;52.97;96377.38;5051475;28;20040;-79
2021/10/09 12:09:38;;;;;;;31.73;15.23;;;;;;;17.00;54.79;96372.59;5052514;28;20040;-79
2021/10/09 12:12:23;;;;;;;30.20;15.63;;;;;;;15.70;52.82;96380.53;5073520;28;20055;-78
2021/10/09 12:14:51;;;;;;;28.30;14.55;;;;;;;15.49;54.83;96373.81;5070706;28;20087;-77
2021/10/09 12:17:20;;;;;;;29.00;15.55;;;;;;;14.45;55.93;96367.63;5072173;28;20070;-77
2021/10/09 12:19:48;;;;;;;27.77;14.88;;;;;;;14.52;57.64;96373.41;5086186;28;20127;-77
2021/10/09 12:22:14;;;;;;;28.70;15.23;;;;;;;15.20;55.48;96366.63;5069768;28;20064;-78
2021/10/09 12:24:50;;;;;;;31.63;15.00;;;;;;;15.71;53.93;96360.84;5073528;28;20052;-78
2021/10/09 12:27:22;;;;;;;37.95;15.27;;;;;;;15.27;53.73;96361.81;5073791;28;20052;-77
2021/10/09 12:30:04;;;;;;;28.52;14.93;;;;;;;15.83;56.41;96349.09;5053859;28;20033;-78
2021/10/09 12:32:50;;;;;;;29.48;14.18;;;;;;;17.34;51.14;96344.94;5052439;28;20040;-78
2021/10/09 12:35:27;;;;;;;30.17;15.38;;;;;;;15.76;53.47;96357.38;5020722;28;20110;-78
2021/10/09 12:37:56;;;;;;;29.58;15.73;;;;;;;16.45;54.49;96344.63;5065538;28;20047;-79
2021/10/09 12:40:24;;;;;;;26.17;13.95;;;;;;;17.18;52.37;96340.94;5053045;28;20029;-77
2021/10/09 12:43:00;;;;;;;28.10;13.25;;;;;;;16.07;54.95;96352.53;5074594;28;20068;-79
2021/10/09 12:45:28;;;;;;;26.92;14.60;;;;;;;15.57;56.23;96350.13;5064299;28;20072;-78
2021/10/09 12:47:55;;;;;;;34.05;16.15;;;;;;;14.47;56.32;96350.38;5057703;28;20036;-78
2021/10/09 12:50:21;;;;;;;28.63;14.60;;;;;;;16.53;53.96;96339.75;5070511;28;20043;-78
2021/10/09 12:52:47;;;;;;;34.30;14.60;;;;;;;15.31;57.61;96341.59;5075191;28;20106;-78
2021/10/09 12:55:14;;;;;;;25.67;13.45;;;;;;;14.58;57.68;96345.81;5070292;28;20045;-81
2021/10/09 12:57:53;;;;;;;28.92;13.30;;;;;;;15.12;55.92;96343.38;5059871;28;20757;-78
2021/10/09 13:00:21;;;;;;;25.77;13.60;;;;;;;16.26;53.60;96338.50;5056955;28;20040;-77
2021/10/09 13:02:46;;;;;;;31.58;12.80;;;;;;;14.67;56.61;96333.63;5055357;28;20060;-77
2021/10/09 13:08:25;;;;;;;26.25;11.32;;;;;;;13.54;58.22;96344.63;5590690;22;20040;-76
2021/10/09 13:10:51;;;;;;;22.73;10.73;;;;;;;13.71;57.20;96348.84;5097965;28;20043;-76
2021/10/09 13:13:16;;;;;;;22.55;10.27;;;;;;;13.31;57.82;96344.09;5095889;28;20052;-76
2021/10/09 13:15:42;;;;;;;25.05;10.57;;;;;;;13.28;58.81;96339.34;5098134;28;20119;-76
2021/10/09 13:18:07;;;;;;;23.85;10.38;;;;;;;13.48;57.60;96329.84;5091634;28;20044;-76
2021/10/09 13:20:36;;;;;;;25.42;11.40;;;;;;;13.16;58.27;96329.06;5099336;27;20085;-76
2021/10/09 15:19:28;;;;;;;23.35;9.52;;;;;;;11.48;65.82;96333.59;5044655;28;20048;-81
2021/10/09 15:21:54;;;;;;;19.98;8.98;;;;;;;11.30;66.61;96331.34;5059236;28;20036;-80
2021/10/09 15:24:19;;;;;;;23.42;9.50;;;;;;;11.12;66.79;96335.16;5033747;28;20045;-81
2021/10/09 15:26:45;;;;;;;20.30;8.82;;;;;;;11.12;68.01;96341.25;5052209;28;20051;-83
2021/10/09 15:29:10;;;;;;;22.65;9.68;;;;;;;11.03;67.49;96338.28;5055117;28;20043;-84